Edgewood, Ohio
Current Conditions -  °F | °C
As of 4:02 PM on Thursday 27 Nov 2014 (Local Time) from KHZY Reporting Station
Light Snow Light Snow  
Wind Chill: 21°   Ceiling: 2500
Heat Index: 30°   Visibility: 4mi
Dew Point: 23°   Wind: 10mph
Humidity: 75%   Direction: 270°W
Pressure: 30.12"   Gusts: NA
Location:  41.8515°N, 80.79°W
Report Text: KHZY 272102Z AUTO 27009KT 4SM -SN BKN025 OVC032 M01/M05 A3012 RMK AO2 P0000 T10111050
Loading
Personal Weather Stations






























Interactive Weather Map New forecast layout! Learn more

10-Day Weather Forecast

Advertisements
Track Severe Weather on mobile